• Join FlightAware (Why Join?)
  • Login
  • US Flag 
10:14PM EST


 

Airport Tracker/Info


-or-


 

Live Flight TrackerFlight Track Log ✈ DAL2378 ✈ 12-Mar-2014 ✈ KSAN - KSLC

Flight Track Log - Related Links

Times and Time Zones

All times are in EDT time to prevent confusion due to time zone crossing. See the DAL2378 flight status page for this flight to view local times or setup timezone preferences in your user account.

Time Position Orientation Groundspeed Altitude Reporting Facility
EDT Latitude Longitude Course Direction KTS MPH feet Rate Location/Type
04:27PM 32.7419 -117.2269 12° North 177 204 39,000  Level Los Angeles Center
04:28PM 32.7553 -117.3017 282° West 229 264 3,700 -15,216 Descending Los Angeles Center
04:29PM 32.6301 -116.7613 19° North  Level FlightAware Approximate
04:29PM 32.6981 -117.3197 195° South 239 275 7,300  Level Los Angeles Center
04:30PM 32.7484 -116.7175 23° Northeast  Level FlightAware Approximate
04:30PM 32.6517 -117.2572 131° Southeast 249 287 10,000  Level Los Angeles Center
04:31PM 32.8661 -116.6753 23° Northeast  Level FlightAware Approximate
04:31PM 32.6358 -117.1494 100° East 324 373 11,400  Level Los Angeles Center
04:32PM 32.9851 -116.6329 12° North  Level FlightAware Approximate
04:32PM 32.6128 -116.9986 100° East 381 438 14,300  Level Los Angeles Center
04:33PM 32.6222 -116.8606 85° East 414 476 16,900 2,371 Climbing Los Angeles Center
04:34PM 32.6800 -116.7408 60° Northeast 440 506 19,200 2,160 Climbing Los Angeles Center
04:35PM 32.7894 -116.6744 27° Northeast 440 506 21,400 1,872 Climbing Los Angeles Center
04:36PM 32.9064 -116.6033 27° Northeast 458 527 23,100 1,694 Climbing Los Angeles Center
04:37PM 33.0328 -116.5256 27° Northeast 476 548 24,900 1,548 Climbing Los Angeles Center
04:38PM 33.1533 -116.4525 27° Northeast 495 570 26,300 1,452 Climbing Los Angeles Center
04:39PM 33.3056 -116.3589 27° Northeast 509 586 27,900 1,645 Climbing Los Angeles Center
04:40PM 33.4342 -116.2794 27° Northeast 516 594 29,700 1,597 Climbing Los Angeles Center
04:41PM 33.5606 -116.2006 27° Northeast 513 590 31,200 1,344 Climbing Los Angeles Center
04:42PM 33.6889 -116.1219 27° Northeast 516 594 32,500 816 Climbing Los Angeles Center
04:43PM 33.8156 -116.0422 28° Northeast 515 593 32,900 339 Climbing Los Angeles Center
04:44PM 33.9406 -115.9628 28° Northeast 510 587 33,200 968 Climbing Los Angeles Center
04:45PM 34.0900 -115.8706 27° Northeast 504 580 34,900 1,403 Climbing Los Angeles Center
04:46PM 34.2122 -115.7917 28° Northeast 500 575 36,100 677 Climbing Los Angeles Center
04:48PM 34.4636 -115.6319 27° Northeast 505 581 37,000 289 Climbing Los Angeles Center
04:49PM 34.5856 -115.5539 28° Northeast 510 587 37,000  Level Los Angeles Center
04:51PM 34.7283 -115.4636 27° Northeast 506 582 37,000  Level Los Angeles Center
04:52PM 34.8528 -115.3828 28° Northeast 506 582 37,000  Level Los Angeles Center
04:53PM 34.9869 -115.2972 28° Northeast 507 583 37,000  Level Los Angeles Center
04:54PM 35.1011 -115.2236 28° Northeast 504 580 37,000  Level Los Angeles Center
04:55PM 35.2497 -115.1272 28° Northeast 504 580 37,000  Level Los Angeles Center
04:56PM 35.3750 -115.0461 28° Northeast 509 586 37,000  Level Los Angeles Center
04:57PM 35.4992 -114.9639 28° Northeast 509 586 37,000  Level Los Angeles Center
04:58PM 35.6239 -114.8833 28° Northeast 509 586 37,000  Level Los Angeles Center
04:59PM 35.7469 -114.8017 28° Northeast 505 581 37,000  Level Los Angeles Center
05:00PM 35.8711 -114.7206 28° Northeast 507 583 37,000  Level Los Angeles Center
05:01PM 36.0189 -114.6231 28° Northeast 505 581 37,000  Level Los Angeles Center
05:02PM 36.1425 -114.5411 28° Northeast 505 581 37,000  Level Los Angeles Center
05:03PM 36.3414 -114.4092 28° Northeast 507 583 37,000  Level Salt Lake Center
05:04PM 36.3906 -114.3747 29° Northeast 508 585 37,000  Level Los Angeles Center
05:06PM 36.5869 -114.2433 28° Northeast 503 579 37,000 -145 Level Salt Lake Center
05:06PM 36.6600 -114.1933 29° Northeast 503 579 36,700 -830 Descending Los Angeles Center
05:07PM 36.7828 -114.1119 28° Northeast 500 575 35,700 -919 Descending Los Angeles Center
05:08PM 36.9033 -114.0283 29° Northeast 498 573 34,800 -919 Descending Los Angeles Center
05:09PM 37.0236 -113.9456 29° Northeast 495 570 33,800 -864 Descending Los Angeles Center
05:10PM 37.1453 -113.8639 28° Northeast 495 570 33,000 -578 Descending Los Angeles Center
05:12PM 37.4092 -113.6811 29° Northeast 492 566 32,000 -645 Descending Los Angeles Center
05:13PM 37.5261 -113.6006 29° Northeast 483 556 31,000 -395 Descending Los Angeles Center
05:15PM 37.6911 -113.4875 28° Northeast 483 556 31,000  Level Salt Lake Center
05:16PM 37.8333 -113.3883 29° Northeast 487 560 31,000  Level Salt Lake Center
05:17PM 37.9517 -113.3044 29° Northeast 487 560 31,000  Level Salt Lake Center
05:18PM 38.0694 -113.2214 29° Northeast 486 559 31,000  Level Salt Lake Center
05:19PM 38.1875 -113.1378 29° Northeast 485 558 31,000  Level Salt Lake Center
05:20PM 38.3058 -113.0539 29° Northeast 486 559 31,000  Level Salt Lake Center
05:21PM 38.4194 -112.9772 28° Northeast 485 558 31,000  Level Salt Lake Center
05:22PM 38.5678 -112.8994 22° Northeast 483 556 31,000  Level Salt Lake Center
05:23PM 38.6922 -112.8381 21° North 480 552 31,000  Level Salt Lake Center
05:24PM 38.8131 -112.7728 23° Northeast 475 547 31,000  Level Salt Lake Center
05:25PM 38.9303 -112.7097 23° Northeast 463 533 31,000  Level Salt Lake Center
05:26PM 39.0450 -112.6458 23° Northeast 453 521 31,000  Level Salt Lake Center
05:27PM 39.1611 -112.5839 22° Northeast 452 520 31,000 -387 Level Salt Lake Center
05:28PM 39.2972 -112.5103 23° Northeast 445 512 30,200 -1,452 Descending Salt Lake Center
05:29PM 39.4028 -112.4489 24° Northeast 426 490 28,000 -1,742 Descending Salt Lake Center
05:30PM 39.4950 -112.3958 24° Northeast 363 418 26,600 -1,742 Descending Salt Lake Center
05:31PM 39.5797 -112.3475 24° Northeast 336 387 24,400 -2,371 Descending Salt Lake Center
05:32PM 39.6628 -112.2997 24° Northeast 329 379 21,700 -2,371 Descending Salt Lake Center
05:33PM 39.7453 -112.2517 24° Northeast 325 374 19,500 -1,839 Descending Salt Lake Center
05:34PM 39.8403 -112.1972 24° Northeast 312 359 17,900 -1,657 Descending Salt Lake Center
05:35PM 39.8953 -112.1733 18° North 313 360 16,600 -1,742 Descending Salt Lake Center
05:35PM 39.9197 -112.1508 35° Northeast 310 357 16,100 -1,714 Descending Salt Lake Center
05:36PM 39.9494 -112.1414 14° North 313 360 15,400 -1,065 Descending Salt Lake Center
05:36PM 39.9981 -112.1039 31° Northeast 309 356 15,000 -436 Descending Salt Lake Center
05:37PM 40.0225 -112.0972 12° North 294 338 15,000  Level Salt Lake Center
05:37PM 40.0711 -112.0589 31° Northeast 294 338 15,000  Level Salt Lake Center
05:38PM 40.1106 -112.0425 18° North 293 337 15,000  Level Salt Lake Center
05:39PM 40.1436 -112.0161 31° Northeast 284 327 15,000 -612 Level Salt Lake Center
05:39PM 40.1667 -112.0097 12° North 256 295 14,500 -1,452 Descending Salt Lake Center
05:40PM 40.2058 -111.9778 32° Northeast 247 284 13,500 -1,818 Descending Salt Lake Center
05:40PM 40.2350 -111.9642 20° North 246 283 12,500 -2,226 Descending Salt Lake Center
05:41PM 40.2828 -111.9397 21° North 248 285 11,200 -1,343 Descending Salt Lake Center
05:41PM 40.3083 -111.9422 356° North 249 287 11,000 -97 Descending Salt Lake Center
05:42PM 40.3511 -111.9328 10° North 245 282 11,100 122 Climbing Salt Lake Center
05:42PM 40.3633 -111.9378 343° North 244 281 11,100 -97 Level Salt Lake Center
05:43PM 40.4200 -111.9319 North 247 284 11,000 -109 Descending Salt Lake Center
05:43PM 40.4261 -111.9389 319° Northwest 249 287 11,000 -1,065 Level Salt Lake Center
05:44PM 40.4869 -111.9397 359° North 244 281 9,900 -1,279 Descending Salt Lake Center
05:44PM 40.4964 -111.9461 333° Northwest 248 285 9,700 -1,258 Descending Salt Lake Center
05:45PM 40.5550 -111.9475 359° North 244 281 8,600 -1,279 Descending Salt Lake Center
05:45PM 40.5642 -111.9514 342° North 244 281 8,400 -1,161 Descending Salt Lake Center
05:46PM 40.6189 -111.9550 357° North 230 265 7,400 -1,182 Descending Salt Lake Center
05:46PM 40.6325 -111.9592 347° North 216 249 7,100 -1,258 Descending Salt Lake Center
05:47PM 40.6844 -111.9628 357° North 199 229 6,100 -1,082 Descending Salt Lake Center
05:47PM 40.6878 -111.9661 323° Northwest 192 221 6,000 -885 Descending Salt Lake Center
05:48PM 40.7308 -111.9681 358° North 169 194 5,200 -885 Descending Salt Lake Center
05:48PM 40.7317 -111.9708 292° West 156 180 5,100 -774 Descending Salt Lake Center
05:49PM 40.7739 -111.9722 359° North 157 181 4,400 -724 Descending Salt Lake Center